createdAt,value
2023-01-19T00:01:00.763Z,2.67
2023-01-19T00:06:06.584Z,2.63
2023-01-19T00:11:10.224Z,2.45
2023-01-19T00:16:15.532Z,2.88
2023-01-19T00:21:19.664Z,2.33
2023-01-19T00:26:23.306Z,2.50
2023-01-19T00:31:28.655Z,2.50
2023-01-19T00:36:32.606Z,2.50
2023-01-19T00:41:36.259Z,2.35
2023-01-19T00:46:41.567Z,2.25
2023-01-19T00:51:46.094Z,2.00
2023-01-19T00:56:49.705Z,2.38
2023-01-19T01:01:55.296Z,1.92
2023-01-19T01:06:59.043Z,2.42
2023-01-19T01:12:02.740Z,2.70
2023-01-19T01:17:09.087Z,1.95
2023-01-19T01:22:12.737Z,2.67
2023-01-19T01:27:16.448Z,2.05
2023-01-19T01:32:21.747Z,2.50
2023-01-19T01:37:25.386Z,2.83
2023-01-19T01:42:31.853Z,2.92
2023-01-19T01:47:42.274Z,2.75
2023-01-19T01:53:07.419Z,2.90
2023-01-19T01:58:13.450Z,2.78
2023-01-19T02:03:18.846Z,3.37
2023-01-19T02:08:28.555Z,3.30
2023-01-19T02:13:34.849Z,2.47
2023-01-19T02:18:41.105Z,3.22
2023-01-19T02:23:48.341Z,3.42
2023-01-19T02:28:57.419Z,3.33
2023-01-19T02:34:02.840Z,3.05
2023-01-19T02:39:11.453Z,2.70
2023-01-19T02:44:17.376Z,2.60
2023-01-19T02:49:21.033Z,2.25
2023-01-19T02:54:37.313Z,2.97
2023-01-19T02:59:56.402Z,2.70
2023-01-19T03:05:20.451Z,2.90
2023-01-19T03:10:35.282Z,3.25
2023-01-19T03:15:44.645Z,2.80
2023-01-19T03:20:51.836Z,2.88
2023-01-19T03:25:58.748Z,3.40
2023-01-19T03:31:06.484Z,3.00
2023-01-19T03:36:14.774Z,3.33
2023-01-19T03:41:23.004Z,2.80
2023-01-19T03:46:27.578Z,3.45
2023-01-19T03:51:31.367Z,3.55
2023-01-19T03:56:36.806Z,3.50
2023-01-19T04:01:40.485Z,4.00
2023-01-19T04:06:44.567Z,3.88
2023-01-19T04:11:49.892Z,3.67
2023-01-19T04:16:53.525Z,4.90
2023-01-19T04:21:57.140Z,3.50
2023-01-19T04:27:02.458Z,4.28
2023-01-19T04:32:06.636Z,4.00
2023-01-19T04:37:10.510Z,3.75
2023-01-19T04:42:15.823Z,3.15
2023-01-19T04:47:19.647Z,3.50
2023-01-19T04:52:23.327Z,3.45
2023-01-19T04:57:28.590Z,3.67
2023-01-19T05:02:32.247Z,3.20
2023-01-19T05:07:35.946Z,2.40
2023-01-19T05:12:41.221Z,0.93
2023-01-19T05:17:44.886Z,0.57
2023-01-19T05:22:50.800Z,0.75
2023-01-19T05:27:56.122Z,0.57
2023-01-19T05:33:00.606Z,0.90
2023-01-19T05:38:04.564Z,0.60
2023-01-19T05:43:09.907Z,0.30
2023-01-19T05:48:13.499Z,0.47
2023-01-19T05:53:18.079Z,0.50
2023-01-19T05:58:23.361Z,0.32
2023-01-19T06:03:27.085Z,0.52
2023-01-19T06:08:30.750Z,0.50
2023-01-19T06:13:36.228Z,0.68
2023-01-19T06:18:39.984Z,0.50
2023-01-19T06:23:43.580Z,0.50
2023-01-19T06:28:48.950Z,0.90
2023-01-19T06:33:52.585Z,0.87
2023-01-19T06:38:56.236Z,0.90
2023-01-19T06:44:01.722Z,0.60
2023-01-19T06:49:05.419Z,0.80
2023-01-19T06:54:09.146Z,0.70
2023-01-19T06:59:14.439Z,1.27
2023-01-19T07:04:18.064Z,0.90
2023-01-19T07:09:21.819Z,0.95
2023-01-19T07:14:27.168Z,0.95
2023-01-19T07:19:31.567Z,1.27
2023-01-19T07:24:35.195Z,1.55
2023-01-19T07:29:41.278Z,1.42
2023-01-19T07:34:44.932Z,1.70
2023-01-19T07:39:48.564Z,1.60
2023-01-19T07:44:53.874Z,1.33
2023-01-19T07:49:57.634Z,1.27
2023-01-19T07:55:01.297Z,1.25
2023-01-19T08:00:07.678Z,2.00
2023-01-19T08:05:11.482Z,1.40
2023-01-19T08:10:15.999Z,1.98
2023-01-19T08:15:21.498Z,1.38
2023-01-19T08:20:25.985Z,1.50
2023-01-19T08:25:33.991Z,1.58
2023-01-19T08:30:39.602Z,1.30
2023-01-19T08:35:44.281Z,1.47
2023-01-19T08:40:49.619Z,1.48
2023-01-19T08:45:54.954Z,1.13
2023-01-19T08:50:58.948Z,1.10
2023-01-19T08:56:02.638Z,1.27
2023-01-19T09:01:08.852Z,1.02
2023-01-19T09:06:14.175Z,1.25
2023-01-19T09:11:18.446Z,1.45
2023-01-19T09:16:23.867Z,1.45
2023-01-19T09:21:28.168Z,0.80
2023-01-19T09:26:33.100Z,1.55
2023-01-19T09:31:38.729Z,1.30
2023-01-19T09:36:42.390Z,1.27
2023-01-19T09:41:49.876Z,1.70
2023-01-19T09:46:55.262Z,1.50
2023-01-19T09:52:00.131Z,1.25
2023-01-19T09:57:05.020Z,1.42
2023-01-19T10:02:22.472Z,1.35
2023-01-19T10:07:53.882Z,1.20
2023-01-19T10:13:12.141Z,1.35
2023-01-19T10:18:24.027Z,1.25
2023-01-19T10:23:37.350Z,1.42
2023-01-19T10:28:41.525Z,1.55
2023-01-19T10:33:47.083Z,1.30
2023-01-19T10:38:50.896Z,1.63
2023-01-19T10:44:01.481Z,1.73
2023-01-19T10:49:07.480Z,1.50
2023-01-19T10:54:14.213Z,1.50
2023-01-19T10:59:32.955Z,1.20
2023-01-19T11:04:38.432Z,1.15
2023-01-19T11:09:42.173Z,1.43
2023-01-19T11:14:46.348Z,1.35
2023-01-19T11:20:02.567Z,1.13
2023-01-19T11:25:07.236Z,1.30
2023-01-19T11:30:22.912Z,1.30
2023-01-19T11:35:42.705Z,1.63
2023-01-19T11:40:53.272Z,1.58
2023-01-19T11:45:58.160Z,1.52
2023-01-19T11:51:06.596Z,1.25
2023-01-19T11:56:11.904Z,1.70
2023-01-19T12:01:21.953Z,1.13
2023-01-19T12:06:32.248Z,1.42
2023-01-19T12:11:39.508Z,1.67
2023-01-19T12:16:44.444Z,1.20
2023-01-19T12:21:50.586Z,1.48
2023-01-19T12:26:57.124Z,1.45
2023-01-19T12:32:20.282Z,1.35
2023-01-19T12:37:41.256Z,1.27
2023-01-19T12:42:48.167Z,1.40
2023-01-19T12:47:55.582Z,1.40
2023-01-19T12:53:03.435Z,2.03
2023-01-19T12:58:13.594Z,1.02
2023-01-19T13:03:58.418Z,1.65
2023-01-19T13:09:03.723Z,1.88
2023-01-19T13:14:36.476Z,1.73
2023-01-19T13:20:05.852Z,1.70
2023-01-19T13:25:13.708Z,1.50
2023-01-19T13:30:21.696Z,1.20
2023-01-19T13:35:25.603Z,1.80
2023-01-19T13:40:38.208Z,1.27
2023-01-19T13:45:42.630Z,1.17
2023-01-19T13:50:58.334Z,1.60
2023-01-19T13:56:18.617Z,1.58
2023-01-19T14:01:23.801Z,1.58
2023-01-19T14:06:35.421Z,1.35
2023-01-19T14:11:40.796Z,1.58
2023-01-19T14:16:45.107Z,1.73
2023-01-19T14:21:59.850Z,1.02
2023-01-19T14:27:21.606Z,1.23
2023-01-19T14:32:26.218Z,1.40
2023-01-19T14:37:32.100Z,1.52
2023-01-19T14:42:40.118Z,1.65
2023-01-19T14:47:45.747Z,1.55
2023-01-19T14:52:56.309Z,1.43
2023-01-19T14:58:01.660Z,1.83
2023-01-19T15:03:05.365Z,1.48
2023-01-19T15:08:11.911Z,1.10
2023-01-19T15:13:22.809Z,1.35
2023-01-19T15:18:28.182Z,1.08
2023-01-19T15:23:32.133Z,1.63
2023-01-19T15:28:37.447Z,1.40
2023-01-19T15:33:41.116Z,1.42
2023-01-19T15:38:44.895Z,1.42
2023-01-19T15:43:50.388Z,1.50
2023-01-19T15:48:54.904Z,1.10
2023-01-19T15:53:58.489Z,1.20
2023-01-19T15:59:03.766Z,1.30
2023-01-19T16:04:09.809Z,1.30
2023-01-19T16:09:13.472Z,1.23
2023-01-19T16:14:18.731Z,1.80
2023-01-19T16:19:22.352Z,1.20
2023-01-19T16:24:26.105Z,1.20
2023-01-19T16:29:31.508Z,1.00
2023-01-19T16:34:36.008Z,0.70
2023-01-19T16:39:39.844Z,1.00
2023-01-19T16:44:45.146Z,0.70
2023-01-19T16:49:48.817Z,0.70
2023-01-19T16:54:52.555Z,0.70
2023-01-19T16:59:57.834Z,0.80
2023-01-19T17:05:01.463Z,0.57
2023-01-19T17:10:05.734Z,0.60
2023-01-19T17:15:11.962Z,0.57
2023-01-19T17:20:15.876Z,0.70
2023-01-19T17:25:19.508Z,0.90
2023-01-19T17:30:24.874Z,0.77
2023-01-19T17:35:29.266Z,0.50
2023-01-19T17:40:33.760Z,0.50
2023-01-19T17:45:39.409Z,0.52
2023-01-19T17:50:43.092Z,0.67
2023-01-19T17:55:46.700Z,0.57
2023-01-19T18:00:52.015Z,0.80
2023-01-19T18:05:55.920Z,0.37
2023-01-19T18:11:00.816Z,0.40
2023-01-19T18:16:08.533Z,0.70
2023-01-19T18:21:14.013Z,0.77
2023-01-19T18:26:18.957Z,0.70
2023-01-19T18:31:24.360Z,0.63
2023-01-19T18:36:28.132Z,0.70
2023-01-19T18:41:31.917Z,0.60
2023-01-19T18:46:37.561Z,0.50
2023-01-19T18:51:41.503Z,0.57
2023-01-19T18:56:45.212Z,0.50
2023-01-19T19:01:50.597Z,0.43
2023-01-19T19:06:54.284Z,0.30
2023-01-19T19:11:58.255Z,1.27
2023-01-19T19:17:04.315Z,0.45
2023-01-19T19:27:10.798Z,0.30
2023-01-19T19:32:16.774Z,0.35
2023-01-19T19:37:20.802Z,0.20
2023-01-19T19:42:24.620Z,0.50
2023-01-19T19:47:29.879Z,0.50
2023-01-19T19:52:38.027Z,0.50
2023-01-19T19:57:41.748Z,0.30
2023-01-19T20:02:47.009Z,0.57
2023-01-19T20:07:50.626Z,0.33
2023-01-19T20:12:54.290Z,0.57
2023-01-19T20:17:59.560Z,0.50
2023-01-19T20:23:03.362Z,0.30
2023-01-19T20:28:07.039Z,0.40
2023-01-19T20:33:13.490Z,0.38
2023-01-19T20:38:17.087Z,0.60
2023-01-19T20:43:20.767Z,0.40
2023-01-19T20:48:26.194Z,0.50
2023-01-19T20:53:30.043Z,0.50
2023-01-19T20:58:34.461Z,0.30
2023-01-19T21:03:39.782Z,0.32
2023-01-19T21:08:43.646Z,0.53
2023-01-19T21:13:47.449Z,0.55
2023-01-19T21:18:52.921Z,0.50
2023-01-19T21:23:58.075Z,0.40
2023-01-19T21:29:02.702Z,0.60
2023-01-19T21:34:08.009Z,0.68
2023-01-19T21:39:11.951Z,0.60
2023-01-19T21:44:15.946Z,0.75
2023-01-19T21:49:22.815Z,0.80
2023-01-19T21:54:26.937Z,0.70
2023-01-19T21:59:30.764Z,0.60
2023-01-19T22:04:36.901Z,0.60
2023-01-19T22:09:40.652Z,0.77
2023-01-19T22:14:44.255Z,0.60
2023-01-19T22:19:49.528Z,0.50
2023-01-19T22:24:53.451Z,0.60
2023-01-19T22:29:57.802Z,0.60
2023-01-19T22:35:03.147Z,0.70
2023-01-19T22:40:07.759Z,0.53
2023-01-19T22:45:12.198Z,0.60
2023-01-19T22:50:17.996Z,0.90
2023-01-19T22:55:21.638Z,0.73
2023-01-19T23:00:25.328Z,0.70
2023-01-19T23:05:30.663Z,0.50
2023-01-19T23:10:34.314Z,0.70
2023-01-19T23:15:38.013Z,0.55
2023-01-19T23:20:43.342Z,0.55
2023-01-19T23:25:47.027Z,0.50
2023-01-19T23:30:50.793Z,0.63
2023-01-19T23:35:57.825Z,0.63
2023-01-19T23:41:01.494Z,0.65
2023-01-19T23:46:05.456Z,0.50
2023-01-19T23:51:12.234Z,0.75
2023-01-19T23:56:17.644Z,0.90
